sensor_id;sensor_type;location;lat;lon;timestamp;pressure;altitude;pressure_sealevel;temperature;humidity
8653;BME280;4364;52.426;9.424;2023-01-08T00:00:10;100072.69;;;8.86;78.18
8653;BME280;4364;52.426;9.424;2023-01-08T00:02:40;100069.47;;;8.79;78.80
8653;BME280;4364;52.426;9.424;2023-01-08T00:05:07;100070.59;;;8.73;78.34
8653;BME280;4364;52.426;9.424;2023-01-08T00:07:34;100058.66;;;8.74;78.91
8653;BME280;4364;52.426;9.424;2023-01-08T00:10:00;100059.53;;;8.64;79.49
8653;BME280;4364;52.426;9.424;2023-01-08T00:12:27;100069.22;;;8.81;78.06
8653;BME280;4364;52.426;9.424;2023-01-08T00:14:53;100066.84;;;8.69;78.80
8653;BME280;4364;52.426;9.424;2023-01-08T00:17:20;100068.44;;;8.70;78.86
8653;BME280;4364;52.426;9.424;2023-01-08T00:19:46;100074.38;;;8.77;79.11
8653;BME280;4364;52.426;9.424;2023-01-08T00:22:12;100071.41;;;8.74;78.99
8653;BME280;4364;52.426;9.424;2023-01-08T00:24:39;100051.63;;;8.73;78.62
8653;BME280;4364;52.426;9.424;2023-01-08T00:27:05;100041.28;;;8.75;78.81
8653;BME280;4364;52.426;9.424;2023-01-08T00:29:32;100044.28;;;8.79;78.97
8653;BME280;4364;52.426;9.424;2023-01-08T00:31:59;100042.91;;;8.81;78.45
8653;BME280;4364;52.426;9.424;2023-01-08T00:34:26;100034.00;;;8.76;79.02
8653;BME280;4364;52.426;9.424;2023-01-08T00:36:52;100033.75;;;8.67;79.22
8653;BME280;4364;52.426;9.424;2023-01-08T00:39:19;100033.75;;;8.67;79.79
8653;BME280;4364;52.426;9.424;2023-01-08T00:41:45;100037.53;;;8.71;79.75
8653;BME280;4364;52.426;9.424;2023-01-08T00:44:12;100048.38;;;8.71;79.71
8653;BME280;4364;52.426;9.424;2023-01-08T00:46:38;100046.22;;;8.68;79.53
8653;BME280;4364;52.426;9.424;2023-01-08T00:49:04;100044.56;;;8.77;79.68
8653;BME280;4364;52.426;9.424;2023-01-08T00:51:31;100041.59;;;8.68;79.61
8653;BME280;4364;52.426;9.424;2023-01-08T00:53:58;100044.28;;;8.79;79.48
8653;BME280;4364;52.426;9.424;2023-01-08T00:56:24;100045.06;;;8.84;79.42
8653;BME280;4364;52.426;9.424;2023-01-08T00:58:51;100044.31;;;8.68;80.15
8653;BME280;4364;52.426;9.424;2023-01-08T01:01:17;100041.09;;;8.66;80.36
8653;BME280;4364;52.426;9.424;2023-01-08T01:03:44;100044.88;;;8.70;80.60
8653;BME280;4364;52.426;9.424;2023-01-08T01:06:11;100031.63;;;8.64;80.40
8653;BME280;4364;52.426;9.424;2023-01-08T01:08:38;100039.97;;;8.73;79.93
8653;BME280;4364;52.426;9.424;2023-01-08T01:11:16;100039.97;;;8.73;80.02
8653;BME280;4364;52.426;9.424;2023-01-08T01:13:43;100033.50;;;8.63;80.20
8653;BME280;4364;52.426;9.424;2023-01-08T01:16:09;100033.78;;;8.62;80.41
8653;BME280;4364;52.426;9.424;2023-01-08T01:18:36;100019.72;;;8.60;80.66
8653;BME280;4364;52.426;9.424;2023-01-08T01:21:09;100026.75;;;8.61;81.18
8653;BME280;4364;52.426;9.424;2023-01-08T01:23:36;100021.91;;;8.58;81.14
8653;BME280;4364;52.426;9.424;2023-01-08T01:26:02;100020.00;;;8.58;80.93
8653;BME280;4364;52.426;9.424;2023-01-08T01:28:29;100018.91;;;8.59;81.19
8653;BME280;4364;52.426;9.424;2023-01-08T01:30:56;100018.66;;;8.56;81.19
8653;BME280;4364;52.426;9.424;2023-01-08T01:33:22;100012.13;;;8.57;81.72
8653;BME280;4364;52.426;9.424;2023-01-08T01:35:58;100024.34;;;8.59;81.36
8653;BME280;4364;52.426;9.424;2023-01-08T01:38:24;100025.66;;;8.62;81.56
8653;BME280;4364;52.426;9.424;2023-01-08T01:40:51;100010.50;;;8.61;81.89
8653;BME280;4364;52.426;9.424;2023-01-08T01:43:41;100014.53;;;8.63;81.35
8653;BME280;4364;52.426;9.424;2023-01-08T01:46:18;100008.56;;;8.66;81.26
8653;BME280;4364;52.426;9.424;2023-01-08T01:48:50;100009.13;;;8.63;81.42
8653;BME280;4364;52.426;9.424;2023-01-08T01:51:18;99997.69;;;8.71;81.10
8653;BME280;4364;52.426;9.424;2023-01-08T01:53:45;100013.69;;;8.68;81.49
8653;BME280;4364;52.426;9.424;2023-01-08T01:56:12;100008.28;;;8.68;81.37
8653;BME280;4364;52.426;9.424;2023-01-08T01:58:38;99997.97;;;8.70;81.68
8653;BME280;4364;52.426;9.424;2023-01-08T02:01:07;100003.38;;;8.70;81.76
8653;BME280;4364;52.426;9.424;2023-01-08T02:03:36;100000.63;;;8.75;81.68
8653;BME280;4364;52.426;9.424;2023-01-08T02:06:36;99985.19;;;8.76;81.62
8653;BME280;4364;52.426;9.424;2023-01-08T02:11:45;99991.16;;;8.78;81.72
8653;BME280;4364;52.426;9.424;2023-01-08T02:14:25;99986.25;;;8.80;81.71
8653;BME280;4364;52.426;9.424;2023-01-08T02:17:00;99999.53;;;8.81;81.32
8653;BME280;4364;52.426;9.424;2023-01-08T02:19:38;99993.25;;;8.86;81.79
8653;BME280;4364;52.426;9.424;2023-01-08T02:25:16;99995.75;;;9.12;80.68
8653;BME280;4364;52.426;9.424;2023-01-08T02:27:48;99986.06;;;9.00;80.88
8653;BME280;4364;52.426;9.424;2023-01-08T02:30:16;99989.06;;;9.04;80.78
8653;BME280;4364;52.426;9.424;2023-01-08T02:32:43;99995.03;;;9.01;80.68
8653;BME280;4364;52.426;9.424;2023-01-08T02:35:10;99993.94;;;9.02;81.27
8653;BME280;4364;52.426;9.424;2023-01-08T02:37:37;99989.09;;;8.99;81.25
8653;BME280;4364;52.426;9.424;2023-01-08T02:40:13;99990.75;;;8.95;81.49
8653;BME280;4364;52.426;9.424;2023-01-08T02:47:44;99984.72;;;9.03;80.59
8653;BME280;4364;52.426;9.424;2023-01-08T02:50:29;99981.91;;;9.13;80.83
8653;BME280;4364;52.426;9.424;2023-01-08T02:53:13;99983.81;;;9.13;80.40
8653;BME280;4364;52.426;9.424;2023-01-08T02:55:44;99989.56;;;9.06;80.22
8653;BME280;4364;52.426;9.424;2023-01-08T02:58:13;99985.53;;;9.03;81.00
8653;BME280;4364;52.426;9.424;2023-01-08T03:00:41;99983.59;;;9.09;80.63
8653;BME280;4364;52.426;9.424;2023-01-08T03:03:14;99980.59;;;9.11;80.95
8653;BME280;4364;52.426;9.424;2023-01-08T03:05:46;99977.38;;;9.03;80.69
8653;BME280;4364;52.426;9.424;2023-01-08T03:08:13;99984.75;;;8.98;81.28
8653;BME280;4364;52.426;9.424;2023-01-08T03:10:42;99976.63;;;8.98;81.43
8653;BME280;4364;52.426;9.424;2023-01-08T03:13:14;99983.63;;;9.04;81.63
8653;BME280;4364;52.426;9.424;2023-01-08T03:15:47;99986.34;;;9.04;81.05
8653;BME280;4364;52.426;9.424;2023-01-08T03:18:18;99979.34;;;8.98;81.63
8653;BME280;4364;52.426;9.424;2023-01-08T03:20:47;99985.00;;;9.01;81.51
8653;BME280;4364;52.426;9.424;2023-01-08T03:23:15;99984.81;;;8.93;82.05
8653;BME280;4364;52.426;9.424;2023-01-08T03:25:45;99977.16;;;9.00;81.56
8653;BME280;4364;52.426;9.424;2023-01-08T03:28:22;99978.25;;;8.99;81.97
8653;BME280;4364;52.426;9.424;2023-01-08T03:30:50;99979.00;;;9.04;81.90
8653;BME280;4364;52.426;9.424;2023-01-08T03:33:19;99978.78;;;9.01;82.13
8653;BME280;4364;52.426;9.424;2023-01-08T03:35:50;99980.03;;;9.08;81.11
8653;BME280;4364;52.426;9.424;2023-01-08T03:38:31;99985.75;;;9.07;81.45
8653;BME280;4364;52.426;9.424;2023-01-08T03:41:04;99977.94;;;9.00;81.91
8653;BME280;4364;52.426;9.424;2023-01-08T03:43:34;99980.31;;;9.07;81.22
8653;BME280;4364;52.426;9.424;2023-01-08T03:46:06;99968.50;;;8.98;82.18
8653;BME280;4364;52.426;9.424;2023-01-08T03:48:34;99968.72;;;9.01;81.61
8653;BME280;4364;52.426;9.424;2023-01-08T03:51:01;99964.16;;;8.97;82.08
8653;BME280;4364;52.426;9.424;2023-01-08T03:53:28;99961.47;;;8.92;82.72
8653;BME280;4364;52.426;9.424;2023-01-08T03:55:55;99957.69;;;8.93;82.38
8653;BME280;4364;52.426;9.424;2023-01-08T03:58:22;99952.31;;;8.87;82.66
8653;BME280;4364;52.426;9.424;2023-01-08T04:00:49;99957.97;;;8.91;83.28
8653;BME280;4364;52.426;9.424;2023-01-08T04:03:15;99951.78;;;8.85;83.57
8653;BME280;4364;52.426;9.424;2023-01-08T04:05:42;99953.16;;;8.83;83.32
8653;BME280;4364;52.426;9.424;2023-01-08T04:08:08;99945.31;;;8.81;83.36
8653;BME280;4364;52.426;9.424;2023-01-08T04:10:35;99934.47;;;8.81;83.77
8653;BME280;4364;52.426;9.424;2023-01-08T04:13:01;99936.78;;;8.93;83.59
8653;BME280;4364;52.426;9.424;2023-01-08T04:15:28;99930.66;;;8.82;83.62
8653;BME280;4364;52.426;9.424;2023-01-08T04:17:54;99921.97;;;8.80;83.85
8653;BME280;4364;52.426;9.424;2023-01-08T04:20:20;99921.97;;;8.80;84.51
8653;BME280;4364;52.426;9.424;2023-01-08T04:22:47;99926.31;;;8.81;84.17
8653;BME280;4364;52.426;9.424;2023-01-08T04:25:13;99917.66;;;8.79;84.41
8653;BME280;4364;52.426;9.424;2023-01-08T04:27:40;99920.16;;;8.76;84.86
8653;BME280;4364;52.426;9.424;2023-01-08T04:30:07;99913.91;;;8.75;84.38
8653;BME280;4364;52.426;9.424;2023-01-08T04:32:34;99911.22;;;8.70;84.97
8653;BME280;4364;52.426;9.424;2023-01-08T04:35:01;99912.91;;;8.66;85.22
8653;BME280;4364;52.426;9.424;2023-01-08T04:37:27;99903.97;;;8.60;85.71
8653;BME280;4364;52.426;9.424;2023-01-08T04:39:53;99904.56;;;8.57;85.49
8653;BME280;4364;52.426;9.424;2023-01-08T04:42:20;99906.44;;;8.57;85.58
8653;BME280;4364;52.426;9.424;2023-01-08T04:44:46;99905.66;;;8.56;85.66
8653;BME280;4364;52.426;9.424;2023-01-08T04:47:13;99900.00;;;8.52;86.33
8653;BME280;4364;52.426;9.424;2023-01-08T04:49:40;99896.19;;;8.53;86.23
8653;BME280;4364;52.426;9.424;2023-01-08T04:52:06;99901.91;;;8.52;86.44
8653;BME280;4364;52.426;9.424;2023-01-08T04:54:33;99896.47;;;8.52;86.47
8653;BME280;4364;52.426;9.424;2023-01-08T04:56:59;99894.56;;;8.52;86.56
8653;BME280;4364;52.426;9.424;2023-01-08T04:59:27;99892.16;;;8.51;86.42
8653;BME280;4364;52.426;9.424;2023-01-08T05:01:53;99889.44;;;8.51;86.71
8653;BME280;4364;52.426;9.424;2023-01-08T05:04:22;99881.31;;;8.51;86.68
8653;BME280;4364;52.426;9.424;2023-01-08T05:06:48;99877.50;;;8.52;86.68
8653;BME280;4364;52.426;9.424;2023-01-08T05:09:14;99879.84;;;8.64;86.44
8653;BME280;4364;52.426;9.424;2023-01-08T05:11:41;99879.06;;;8.58;86.31
8653;BME280;4364;52.426;9.424;2023-01-08T05:14:08;99869.31;;;8.62;86.26
8653;BME280;4364;52.426;9.424;2023-01-08T05:16:35;99877.44;;;8.62;85.88
8653;BME280;4364;52.426;9.424;2023-01-08T05:19:01;99883.66;;;8.63;85.90
8653;BME280;4364;52.426;9.424;2023-01-08T05:21:28;99875.75;;;8.66;85.64
8653;BME280;4364;52.426;9.424;2023-01-08T05:23:54;99875.75;;;8.66;86.21
8653;BME280;4364;52.426;9.424;2023-01-08T05:26:21;99867.06;;;8.69;86.08
8653;BME280;4364;52.426;9.424;2023-01-08T05:28:47;99868.72;;;8.65;86.15
8653;BME280;4364;52.426;9.424;2023-01-08T05:31:14;99870.63;;;8.65;86.15
8653;BME280;4364;52.426;9.424;2023-01-08T05:33:40;99866.59;;;8.62;86.12
8653;BME280;4364;52.426;9.424;2023-01-08T05:36:09;99872.81;;;8.63;86.27
8653;BME280;4364;52.426;9.424;2023-01-08T05:38:36;99861.41;;;8.66;86.15
8653;BME280;4364;52.426;9.424;2023-01-08T05:41:04;99860.06;;;8.63;85.93
8653;BME280;4364;52.426;9.424;2023-01-08T05:43:30;99857.63;;;8.62;86.52
8653;BME280;4364;52.426;9.424;2023-01-08T05:45:58;99861.44;;;8.61;86.56
8653;BME280;4364;52.426;9.424;2023-01-08T05:48:27;99863.88;;;8.62;86.43
8653;BME280;4364;52.426;9.424;2023-01-08T05:50:53;99866.53;;;8.67;86.23
8653;BME280;4364;52.426;9.424;2023-01-08T05:53:20;99867.91;;;8.65;86.66
8653;BME280;4364;52.426;9.424;2023-01-08T05:55:47;99877.72;;;8.61;86.67
8653;BME280;4364;52.426;9.424;2023-01-08T05:58:13;99872.84;;;8.58;87.16
8653;BME280;4364;52.426;9.424;2023-01-08T06:00:44;99876.66;;;8.57;87.05
8653;BME280;4364;52.426;9.424;2023-01-08T06:03:11;99872.84;;;8.58;87.24
8653;BME280;4364;52.426;9.424;2023-01-08T06:05:37;99867.19;;;8.54;87.72
8653;BME280;4364;52.426;9.424;2023-01-08T06:08:04;99860.94;;;8.59;87.40
8653;BME280;4364;52.426;9.424;2023-01-08T06:10:35;99865.81;;;8.57;87.58
8653;BME280;4364;52.426;9.424;2023-01-08T06:13:06;99860.94;;;8.59;87.27
8653;BME280;4364;52.426;9.424;2023-01-08T06:15:33;99846.31;;;8.55;87.83
8653;BME280;4364;52.426;9.424;2023-01-08T06:18:03;99840.63;;;8.56;87.92
8653;BME280;4364;52.426;9.424;2023-01-08T06:20:30;99841.66;;;8.60;88.10
8653;BME280;4364;52.426;9.424;2023-01-08T06:22:56;99855.69;;;8.67;87.62
8653;BME280;4364;52.426;9.424;2023-01-08T06:25:23;99854.88;;;8.67;87.71
8653;BME280;4364;52.426;9.424;2023-01-08T06:27:53;99849.25;;;8.58;88.34
8653;BME280;4364;52.426;9.424;2023-01-08T06:30:19;99846.84;;;8.57;88.37
8653;BME280;4364;52.426;9.424;2023-01-08T06:32:45;99843.78;;;8.63;88.60
8653;BME280;4364;52.426;9.424;2023-01-08T06:35:12;99844.69;;;8.59;88.36
8653;BME280;4364;52.426;9.424;2023-01-08T06:37:38;99842.81;;;8.54;88.64
8653;BME280;4364;52.426;9.424;2023-01-08T06:40:05;99836.56;;;8.53;89.23
8653;BME280;4364;52.426;9.424;2023-01-08T06:42:32;99843.09;;;8.52;89.18
8653;BME280;4364;52.426;9.424;2023-01-08T06:44:59;99838.94;;;8.60;89.33
8653;BME280;4364;52.426;9.424;2023-01-08T06:47:27;99841.03;;;8.68;89.06
8653;BME280;4364;52.426;9.424;2023-01-08T06:49:54;99844.06;;;8.62;88.94
8653;BME280;4364;52.426;9.424;2023-01-08T06:52:20;99845.72;;;8.63;89.81
8653;BME280;4364;52.426;9.424;2023-01-08T06:54:47;99849.53;;;8.57;89.98
8653;BME280;4364;52.426;9.424;2023-01-08T06:57:13;99843.03;;;8.58;90.21
8653;BME280;4364;52.426;9.424;2023-01-08T06:59:39;99845.19;;;8.61;90.51
8653;BME280;4364;52.426;9.424;2023-01-08T07:02:11;99848.03;;;8.75;89.99
8653;BME280;4364;52.426;9.424;2023-01-08T07:04:38;99843.69;;;8.79;89.56
8653;BME280;4364;52.426;9.424;2023-01-08T07:07:05;99841.50;;;8.81;89.40
8653;BME280;4364;52.426;9.424;2023-01-08T07:09:34;99847.09;;;8.89;88.98
8653;BME280;4364;52.426;9.424;2023-01-08T07:12:03;99845.00;;;8.81;89.60
8653;BME280;4364;52.426;9.424;2023-01-08T07:14:30;99848.84;;;8.75;90.32
8653;BME280;4364;52.426;9.424;2023-01-08T07:16:57;99843.41;;;8.75;90.48
8653;BME280;4364;52.426;9.424;2023-01-08T07:19:23;99857.97;;;8.84;89.99
8653;BME280;4364;52.426;9.424;2023-01-08T07:21:49;99852.56;;;8.84;90.33
8653;BME280;4364;52.426;9.424;2023-01-08T07:24:16;99848.78;;;8.85;90.92
8653;BME280;4364;52.426;9.424;2023-01-08T07:26:42;99850.66;;;8.85;90.95
8653;BME280;4364;52.426;9.424;2023-01-08T07:29:09;99850.19;;;8.78;91.49
8653;BME280;4364;52.426;9.424;2023-01-08T07:31:35;99859.16;;;8.73;91.96
8653;BME280;4364;52.426;9.424;2023-01-08T07:34:02;99857.59;;;8.67;93.05
8653;BME280;4364;52.426;9.424;2023-01-08T07:36:28;99854.72;;;8.87;92.24
8653;BME280;4364;52.426;9.424;2023-01-08T07:38:55;99854.53;;;8.79;92.36
8653;BME280;4364;52.426;9.424;2023-01-08T07:41:21;99857.81;;;8.76;93.24
8653;BME280;4364;52.426;9.424;2023-01-08T07:43:49;99853.00;;;8.67;93.59
8653;BME280;4364;52.426;9.424;2023-01-08T07:46:15;99850.94;;;8.83;92.51
8653;BME280;4364;52.426;9.424;2023-01-08T07:48:41;99836.97;;;8.71;93.17
8653;BME280;4364;52.426;9.424;2023-01-08T07:51:08;99839.16;;;8.69;92.93
8653;BME280;4364;52.426;9.424;2023-01-08T07:53:35;99842.19;;;8.62;93.52
8653;BME280;4364;52.426;9.424;2023-01-08T07:56:05;99840.91;;;8.55;93.85
8653;BME280;4364;52.426;9.424;2023-01-08T07:58:32;99826.22;;;8.61;93.73
8653;BME280;4364;52.426;9.424;2023-01-08T08:01:00;99825.84;;;8.73;92.90
8653;BME280;4364;52.426;9.424;2023-01-08T08:03:28;99825.31;;;8.70;92.73
8653;BME280;4364;52.426;9.424;2023-01-08T08:05:55;99831.59;;;8.66;93.10
8653;BME280;4364;52.426;9.424;2023-01-08T08:08:21;99837.47;;;8.73;92.87
8653;BME280;4364;52.426;9.424;2023-01-08T08:10:48;99843.13;;;8.77;91.86
8653;BME280;4364;52.426;9.424;2023-01-08T08:13:14;99827.69;;;8.77;92.22
8653;BME280;4364;52.426;9.424;2023-01-08T08:15:41;99840.91;;;8.84;91.24
8653;BME280;4364;52.426;9.424;2023-01-08T08:18:07;99837.16;;;8.80;91.87
8653;BME280;4364;52.426;9.424;2023-01-08T08:20:35;99830.94;;;8.79;91.46
8653;BME280;4364;52.426;9.424;2023-01-08T08:23:08;99839.56;;;8.81;90.61
8653;BME280;4364;52.426;9.424;2023-01-08T08:25:35;99842.53;;;8.85;90.32
8653;BME280;4364;52.426;9.424;2023-01-08T08:28:02;99841.66;;;8.89;90.23
8653;BME280;4364;52.426;9.424;2023-01-08T08:30:30;99839.06;;;8.79;90.43
8653;BME280;4364;52.426;9.424;2023-01-08T08:33:00;99836.28;;;8.84;90.51
8653;BME280;4364;52.426;9.424;2023-01-08T08:35:28;99849.28;;;8.87;90.32
8653;BME280;4364;52.426;9.424;2023-01-08T08:37:56;99847.72;;;8.81;89.96
8653;BME280;4364;52.426;9.424;2023-01-08T08:40:23;99836.19;;;8.95;89.61
8653;BME280;4364;52.426;9.424;2023-01-08T08:43:00;99837.59;;;8.92;89.47
8653;BME280;4364;52.426;9.424;2023-01-08T08:45:28;99838.38;;;8.93;89.24
8653;BME280;4364;52.426;9.424;2023-01-08T08:47:55;99828.97;;;8.85;89.55
8653;BME280;4364;52.426;9.424;2023-01-08T08:50:21;99831.09;;;8.88;89.78
8653;BME280;4364;52.426;9.424;2023-01-08T08:52:48;99824.88;;;8.87;89.72
8653;BME280;4364;52.426;9.424;2023-01-08T08:55:14;99819.34;;;8.98;88.93
8653;BME280;4364;52.426;9.424;2023-01-08T08:57:43;99814.28;;;8.91;89.39
8653;BME280;4364;52.426;9.424;2023-01-08T09:00:11;99813.97;;;8.93;89.52
8653;BME280;4364;52.426;9.424;2023-01-08T09:02:38;99807.44;;;8.94;89.88
8653;BME280;4364;52.426;9.424;2023-01-08T09:05:05;99812.88;;;8.94;90.02
8653;BME280;4364;52.426;9.424;2023-01-08T09:07:32;99811.16;;;9.03;89.49
8653;BME280;4364;52.426;9.424;2023-01-08T09:09:58;99802.38;;;8.87;89.64
8653;BME280;4364;52.426;9.424;2023-01-08T09:12:25;99808.63;;;8.87;90.37
8653;BME280;4364;52.426;9.424;2023-01-08T09:14:52;99808.00;;;8.96;89.75
8653;BME280;4364;52.426;9.424;2023-01-08T09:17:20;99802.69;;;8.85;90.45
8653;BME280;4364;52.426;9.424;2023-01-08T09:19:46;99811.91;;;8.84;90.46
8653;BME280;4364;52.426;9.424;2023-01-08T09:22:13;99813.81;;;8.84;90.64
8653;BME280;4364;52.426;9.424;2023-01-08T09:24:39;99818.41;;;8.83;90.61
8653;BME280;4364;52.426;9.424;2023-01-08T09:27:06;99823.31;;;8.81;90.97
8653;BME280;4364;52.426;9.424;2023-01-08T09:29:35;99808.00;;;8.96;90.13
8653;BME280;4364;52.426;9.424;2023-01-08T09:32:04;99813.59;;;9.04;89.63
8653;BME280;4364;52.426;9.424;2023-01-08T09:34:32;99821.84;;;8.94;89.49
8653;BME280;4364;52.426;9.424;2023-01-08T09:36:59;99815.28;;;8.95;89.84
8653;BME280;4364;52.426;9.424;2023-01-08T09:39:26;99809.47;;;8.83;90.43
8653;BME280;4364;52.426;9.424;2023-01-08T09:41:54;99817.50;;;8.93;89.92
8653;BME280;4364;52.426;9.424;2023-01-08T09:44:25;99808.56;;;8.93;89.72
8653;BME280;4364;52.426;9.424;2023-01-08T09:46:54;99807.72;;;8.97;90.36
8653;BME280;4364;52.426;9.424;2023-01-08T09:49:26;99810.41;;;8.97;90.34
8653;BME280;4364;52.426;9.424;2023-01-08T09:51:59;99807.09;;;9.00;90.13
8653;BME280;4364;52.426;9.424;2023-01-08T09:54:29;99801.81;;;9.14;89.55
8653;BME280;4364;52.426;9.424;2023-01-08T09:56:58;99804.59;;;9.09;89.21
8653;BME280;4364;52.426;9.424;2023-01-08T09:59:25;99803.69;;;9.14;89.21
8653;BME280;4364;52.426;9.424;2023-01-08T10:01:52;99807.19;;;9.19;88.69
8653;BME280;4364;52.426;9.424;2023-01-08T10:04:22;99804.19;;;9.21;88.00
8653;BME280;4364;52.426;9.424;2023-01-08T10:06:55;99802.50;;;9.25;88.13
8653;BME280;4364;52.426;9.424;2023-01-08T10:09:27;99811.31;;;9.12;88.82
8653;BME280;4364;52.426;9.424;2023-01-08T10:11:58;99809.88;;;9.19;89.09
8653;BME280;4364;52.426;9.424;2023-01-08T10:14:29;99797.28;;;9.28;88.13
8653;BME280;4364;52.426;9.424;2023-01-08T10:17:00;99808.69;;;9.31;87.92
8653;BME280;4364;52.426;9.424;2023-01-08T10:19:28;99801.34;;;9.31;87.49
8653;BME280;4364;52.426;9.424;2023-01-08T10:21:55;99800.91;;;9.24;88.59
8653;BME280;4364;52.426;9.424;2023-01-08T10:24:37;99797.28;;;9.28;88.42
8653;BME280;4364;52.426;9.424;2023-01-08T10:27:13;99810.47;;;9.16;89.31
8653;BME280;4364;52.426;9.424;2023-01-08T10:29:40;99802.97;;;9.08;89.82
8653;BME280;4364;52.426;9.424;2023-01-08T10:32:14;99818.31;;;9.18;90.24
8653;BME280;4364;52.426;9.424;2023-01-08T10:34:56;99799.03;;;9.19;89.51
8653;BME280;4364;52.426;9.424;2023-01-08T10:37:27;99803.09;;;8.98;88.17
8653;BME280;4364;52.426;9.424;2023-01-08T10:42:34;99792.56;;;8.91;83.82
8653;BME280;4364;52.426;9.424;2023-01-08T10:45:03;99796.31;;;8.95;82.60
8653;BME280;4364;52.426;9.424;2023-01-08T10:47:33;99816.84;;;8.77;83.15
8653;BME280;4364;52.426;9.424;2023-01-08T10:50:03;99809.00;;;8.76;83.64
8653;BME280;4364;52.426;9.424;2023-01-08T10:52:33;99806.53;;;8.79;84.27
8653;BME280;4364;52.426;9.424;2023-01-08T10:55:34;99806.25;;;8.81;85.01
8653;BME280;4364;52.426;9.424;2023-01-08T11:00:35;99779.53;;;8.69;85.85
8653;BME280;4364;52.426;9.424;2023-01-08T11:03:05;99792.50;;;8.72;86.54
8653;BME280;4364;52.426;9.424;2023-01-08T11:05:34;99787.59;;;8.74;86.71
8653;BME280;4364;52.426;9.424;2023-01-08T11:08:11;99779.72;;;8.78;87.85
8653;BME280;4364;52.426;9.424;2023-01-08T11:10:41;99780.22;;;8.80;88.15
8653;BME280;4364;52.426;9.424;2023-01-08T11:13:16;99774.47;;;8.86;88.09
8653;BME280;4364;52.426;9.424;2023-01-08T11:15:43;99772.19;;;8.94;88.41
8653;BME280;4364;52.426;9.424;2023-01-08T11:18:18;99761.31;;;8.99;88.55
8653;BME280;4364;52.426;9.424;2023-01-08T11:20:46;99765.13;;;8.98;89.13
8653;BME280;4364;52.426;9.424;2023-01-08T11:23:23;99763.97;;;9.04;89.09
8653;BME280;4364;52.426;9.424;2023-01-08T11:28:44;99757.19;;;9.25;88.33
8653;BME280;4364;52.426;9.424;2023-01-08T11:31:20;99758.22;;;9.30;88.72
8653;BME280;4364;52.426;9.424;2023-01-08T11:33:51;99755.22;;;9.31;88.16
8653;BME280;4364;52.426;9.424;2023-01-08T11:36:31;99748.34;;;9.39;87.28
8653;BME280;4364;52.426;9.424;2023-01-08T11:38:59;99757.94;;;9.50;85.21
8653;BME280;4364;52.426;9.424;2023-01-08T11:44:32;99744.91;;;9.52;83.60
8653;BME280;4364;52.426;9.424;2023-01-08T11:52:54;99730.72;;;9.55;80.90
8653;BME280;4364;52.426;9.424;2023-01-08T11:58:41;99731.56;;;9.56;80.32
8653;BME280;4364;52.426;9.424;2023-01-08T12:07:18;99723.56;;;9.64;79.10
8653;BME280;4364;52.426;9.424;2023-01-08T12:09:54;99723.69;;;9.73;77.61
8653;BME280;4364;52.426;9.424;2023-01-08T12:12:46;99716.78;;;9.62;76.87
8653;BME280;4364;52.426;9.424;2023-01-08T12:15:33;99702.72;;;9.60;74.34
8653;BME280;4364;52.426;9.424;2023-01-08T12:21:23;99707.25;;;9.64;72.46
8653;BME280;4364;52.426;9.424;2023-01-08T12:29:41;99695.75;;;9.73;71.53
8653;BME280;4364;52.426;9.424;2023-01-08T12:37:43;99683.94;;;9.63;71.52
8653;BME280;4364;52.426;9.424;2023-01-08T12:40:16;99683.63;;;9.65;69.99
8653;BME280;4364;52.426;9.424;2023-01-08T12:42:45;99692.66;;;9.60;69.92
8653;BME280;4364;52.426;9.424;2023-01-08T12:45:27;99676.81;;;9.68;69.94
8653;BME280;4364;52.426;9.424;2023-01-08T12:48:10;99679.25;;;9.69;70.39
8653;BME280;4364;52.426;9.424;2023-01-08T12:53:49;99669.75;;;9.86;69.22
8653;BME280;4364;52.426;9.424;2023-01-08T12:56:27;99672.53;;;9.80;69.36
8653;BME280;4364;52.426;9.424;2023-01-08T13:02:02;99654.88;;;9.97;68.85
8653;BME280;4364;52.426;9.424;2023-01-08T13:04:43;99656.69;;;10.01;68.65
8653;BME280;4364;52.426;9.424;2023-01-08T13:07:17;99650.69;;;10.05;68.94
8653;BME280;4364;52.426;9.424;2023-01-08T13:09:44;99650.69;;;10.05;69.09
8653;BME280;4364;52.426;9.424;2023-01-08T13:12:13;99646.03;;;10.05;69.64
8653;BME280;4364;52.426;9.424;2023-01-08T13:14:47;99641.53;;;10.14;69.47
8653;BME280;4364;52.426;9.424;2023-01-08T13:17:17;99636.81;;;10.20;69.62
8653;BME280;4364;52.426;9.424;2023-01-08T13:19:51;99628.75;;;10.29;69.70
8653;BME280;4364;52.426;9.424;2023-01-08T13:22:27;99619.22;;;10.31;69.36
8653;BME280;4364;52.426;9.424;2023-01-08T13:27:38;99617.31;;;10.32;68.95
8653;BME280;4364;52.426;9.424;2023-01-08T13:30:33;99618.06;;;10.37;69.74
8653;BME280;4364;52.426;9.424;2023-01-08T13:33:01;99619.25;;;10.45;69.46
8653;BME280;4364;52.426;9.424;2023-01-08T13:35:29;99619.66;;;10.66;68.67
8653;BME280;4364;52.426;9.424;2023-01-08T13:43:30;99612.50;;;10.56;67.60
8653;BME280;4364;52.426;9.424;2023-01-08T13:48:34;99599.16;;;10.27;68.62
8653;BME280;4364;52.426;9.424;2023-01-08T13:51:02;99590.81;;;10.24;69.09
8653;BME280;4364;52.426;9.424;2023-01-08T13:53:30;99589.53;;;10.21;69.44
8653;BME280;4364;52.426;9.424;2023-01-08T13:56:05;99590.03;;;10.23;69.39
8653;BME280;4364;52.426;9.424;2023-01-08T13:58:37;99590.41;;;10.30;69.58
8653;BME280;4364;52.426;9.424;2023-01-08T14:01:08;99589.63;;;10.16;69.97
8653;BME280;4364;52.426;9.424;2023-01-08T14:03:37;99580.25;;;10.08;70.55
8653;BME280;4364;52.426;9.424;2023-01-08T14:11:24;99572.09;;;9.94;71.57
8653;BME280;4364;52.426;9.424;2023-01-08T14:13:53;99569.97;;;9.91;71.54
8653;BME280;4364;52.426;9.424;2023-01-08T14:16:21;99577.03;;;9.92;72.07
8653;BME280;4364;52.426;9.424;2023-01-08T14:18:48;99583.75;;;9.95;71.88
8653;BME280;4364;52.426;9.424;2023-01-08T14:21:19;99580.06;;;9.91;72.50
8653;BME280;4364;52.426;9.424;2023-01-08T14:23:48;99575.00;;;9.84;72.80
8653;BME280;4364;52.426;9.424;2023-01-08T14:26:25;99577.44;;;9.86;72.81
8653;BME280;4364;52.426;9.424;2023-01-08T14:28:52;99572.88;;;9.81;72.95
8653;BME280;4364;52.426;9.424;2023-01-08T14:31:24;99571.78;;;9.82;72.88
8653;BME280;4364;52.426;9.424;2023-01-08T14:33:56;99563.50;;;9.73;73.29
8653;BME280;4364;52.426;9.424;2023-01-08T14:36:24;99565.31;;;9.64;73.52
8653;BME280;4364;52.426;9.424;2023-01-08T14:38:51;99555.66;;;9.58;73.61
8653;BME280;4364;52.426;9.424;2023-01-08T14:41:31;99562.75;;;9.54;73.98
8653;BME280;4364;52.426;9.424;2023-01-08T14:44:21;99562.06;;;9.48;73.63
8653;BME280;4364;52.426;9.424;2023-01-08T14:47:04;99556.00;;;9.37;74.58
8653;BME280;4364;52.426;9.424;2023-01-08T14:49:32;99562.81;;;9.35;74.50
8653;BME280;4364;52.426;9.424;2023-01-08T14:52:09;99559.47;;;9.24;75.43
8653;BME280;4364;52.426;9.424;2023-01-08T14:54:37;99556.00;;;9.18;75.53